Time;durP1;ratioP1;P1;durP2;ratioP2;P2;SDS_P1;SDS_P2;PMS_P1;PMS_P2;Temp;Humidity;BMP_temperature;BMP_pressure;BME280_temperature;BME280_humidity;BME280_pressure;Samples;Min_cycle;Max_cycle;Signal;HPM_P1;HPM_P2
2024/01/28 00:00:16;;;;;;;206.30;59.67;;;;;;;;;;4972847;28;20189;-43
2024/01/28 00:02:43;;;;;;;208.45;60.10;;;;;;;;;;4972730;28;20173;-43
2024/01/28 00:05:11;;;;;;;207.85;59.42;;;;;;;;;;4972284;28;20288;-43
2024/01/28 00:07:37;;;;;;;208.95;61.00;;;;;;;;;;4972610;28;20178;-43
2024/01/28 00:10:03;;;;;;;207.57;59.67;;;;;;;;;;4972603;28;20177;-43
2024/01/28 00:12:29;;;;;;;208.95;60.17;;;;;;;;;;4972851;28;20589;-43
2024/01/28 00:14:56;;;;;;;209.52;61.25;;;;;;;;;;4972143;28;20205;-43
2024/01/28 00:17:22;;;;;;;209.05;59.92;;;;;;;;;;4972614;28;20181;-43
2024/01/28 00:19:48;;;;;;;209.60;60.87;;;;;;;;;;4976371;28;20177;-43
2024/01/28 00:22:14;;;;;;;211.07;61.85;;;;;;;;;;4973230;28;20431;-43
2024/01/28 00:24:40;;;;;;;213.37;63.97;;;;;;;;;;4975482;28;20589;-43
2024/01/28 00:27:06;;;;;;;210.83;62.60;;;;;;;;;;4972939;28;20543;-43
2024/01/28 00:29:31;;;;;;;210.47;62.07;;;;;;;;;;4981305;28;20397;-43
2024/01/28 00:31:59;;;;;;;210.60;61.03;;;;;;;;;;4976428;28;20401;-43
2024/01/28 00:34:25;;;;;;;209.73;61.42;;;;;;;;;;4975872;28;20421;-43
2024/01/28 00:36:51;;;;;;;212.07;62.80;;;;;;;;;;4973339;28;20223;-43
2024/01/28 00:39:17;;;;;;;220.38;69.30;;;;;;;;;;4970829;28;20177;-43
2024/01/28 00:41:43;;;;;;;210.57;61.60;;;;;;;;;;4977152;28;20659;-44
2024/01/28 00:44:09;;;;;;;212.35;63.20;;;;;;;;;;4975748;28;20421;-44
2024/01/28 00:46:36;;;;;;;212.13;62.55;;;;;;;;;;4975932;28;20300;-43
2024/01/28 00:49:03;;;;;;;212.52;62.85;;;;;;;;;;4975856;28;20174;-43
2024/01/28 00:51:29;;;;;;;213.20;62.95;;;;;;;;;;4975814;28;20192;-43
2024/01/28 00:53:55;;;;;;;210.65;63.08;;;;;;;;;;4975798;28;20594;-43
2024/01/28 00:56:21;;;;;;;208.03;60.87;;;;;;;;;;4975873;28;20207;-43
2024/01/28 00:58:47;;;;;;;209.67;61.47;;;;;;;;;;4979851;28;20488;-44
2024/01/28 01:01:13;;;;;;;210.30;62.93;;;;;;;;;;4975660;28;20897;-43
2024/01/28 01:03:39;;;;;;;210.60;63.90;;;;;;;;;;4975468;28;20393;-44
2024/01/28 01:06:08;;;;;;;211.82;63.50;;;;;;;;;;4975724;28;20660;-44
2024/01/28 01:08:34;;;;;;;212.35;62.90;;;;;;;;;;4975678;28;20216;-43
2024/01/28 01:11:03;;;;;;;211.23;63.20;;;;;;;;;;4975567;28;20181;-43
2024/01/28 01:13:30;;;;;;;215.88;67.00;;;;;;;;;;4975356;28;20174;-43
2024/01/28 01:15:56;;;;;;;209.85;62.35;;;;;;;;;;4975223;28;20213;-43
2024/01/28 01:18:23;;;;;;;212.63;63.30;;;;;;;;;;4975405;28;20712;-43
2024/01/28 01:20:49;;;;;;;213.60;65.32;;;;;;;;;;4975291;28;20473;-44
2024/01/28 01:23:15;;;;;;;211.57;63.07;;;;;;;;;;4975402;28;20265;-43
2024/01/28 01:25:41;;;;;;;209.33;61.67;;;;;;;;;;4975160;28;20437;-44
2024/01/28 01:28:07;;;;;;;211.37;63.40;;;;;;;;;;4975236;28;20428;-43
2024/01/28 01:30:33;;;;;;;211.83;62.47;;;;;;;;;;4975346;28;20444;-43
2024/01/28 01:32:59;;;;;;;214.93;65.80;;;;;;;;;;4974541;28;20421;-43
2024/01/28 01:35:26;;;;;;;211.20;63.95;;;;;;;;;;4981124;28;20197;-43
2024/01/28 01:37:54;;;;;;;211.40;61.83;;;;;;;;;;4975119;28;20630;-43
2024/01/28 01:40:20;;;;;;;212.63;62.67;;;;;;;;;;4975051;28;20162;-43
2024/01/28 01:42:46;;;;;;;211.70;62.85;;;;;;;;;;4975038;28;20194;-45
2024/01/28 01:45:12;;;;;;;215.10;65.88;;;;;;;;;;4974586;28;20205;-44
2024/01/28 01:47:38;;;;;;;212.18;63.13;;;;;;;;;;4974866;28;20173;-44
2024/01/28 01:50:05;;;;;;;223.10;72.65;;;;;;;;;;4996293;23;20224;-44
2024/01/28 01:52:32;;;;;;;214.02;63.67;;;;;;;;;;5010892;28;20662;-44
2024/01/28 01:54:58;;;;;;;210.98;63.22;;;;;;;;;;5012999;28;20196;-44
2024/01/28 01:57:24;;;;;;;211.48;62.38;;;;;;;;;;5013786;28;20179;-44
2024/01/28 01:59:50;;;;;;;212.70;63.83;;;;;;;;;;5009690;28;20197;-44
2024/01/28 02:02:16;;;;;;;210.80;64.03;;;;;;;;;;4993486;28;20200;-44
2024/01/28 02:04:43;;;;;;;211.32;64.05;;;;;;;;;;4993304;28;20784;-44
2024/01/28 02:07:09;;;;;;;211.55;62.35;;;;;;;;;;4993705;28;20227;-45
2024/01/28 02:09:35;;;;;;;211.47;62.60;;;;;;;;;;4994583;28;20177;-44
2024/01/28 02:12:02;;;;;;;209.57;62.53;;;;;;;;;;4993772;28;20412;-44
2024/01/28 02:14:29;;;;;;;211.45;63.40;;;;;;;;;;4993455;28;20169;-44
2024/01/28 02:16:59;;;;;;;209.73;63.03;;;;;;;;;;4993762;28;20161;-44
2024/01/28 02:19:26;;;;;;;211.68;63.63;;;;;;;;;;4986401;28;20176;-45
2024/01/28 02:21:52;;;;;;;209.98;61.80;;;;;;;;;;4993712;28;20179;-44
2024/01/28 02:24:18;;;;;;;209.90;63.53;;;;;;;;;;4993446;28;20184;-44
2024/01/28 02:26:44;;;;;;;208.52;61.45;;;;;;;;;;4994042;28;20201;-44
2024/01/28 02:29:10;;;;;;;211.75;65.35;;;;;;;;;;4993475;28;20173;-44
2024/01/28 02:31:36;;;;;;;208.57;62.30;;;;;;;;;;4993520;28;20676;-44
2024/01/28 02:34:02;;;;;;;212.33;64.80;;;;;;;;;;4993293;28;20824;-44
2024/01/28 02:36:30;;;;;;;206.27;61.60;;;;;;;;;;4993267;28;20958;-44
2024/01/28 02:38:55;;;;;;;207.43;61.53;;;;;;;;;;4993468;28;20408;-44
2024/01/28 02:41:22;;;;;;;209.63;64.07;;;;;;;;;;4993756;28;20193;-44
2024/01/28 02:43:48;;;;;;;210.52;64.70;;;;;;;;;;4993022;28;20412;-44
2024/01/28 02:46:14;;;;;;;209.57;63.00;;;;;;;;;;4992364;28;20546;-44
2024/01/28 02:48:41;;;;;;;211.00;63.90;;;;;;;;;;4993360;28;20192;-44
2024/01/28 02:51:07;;;;;;;209.75;63.45;;;;;;;;;;4992855;28;20212;-44
2024/01/28 02:53:33;;;;;;;213.35;65.43;;;;;;;;;;4992983;28;20176;-44
2024/01/28 02:56:02;;;;;;;210.90;63.78;;;;;;;;;;4992804;28;20323;-44
2024/01/28 02:58:28;;;;;;;211.32;65.30;;;;;;;;;;4986200;28;20169;-44
2024/01/28 03:00:54;;;;;;;210.57;65.37;;;;;;;;;;4992920;28;20208;-44
2024/01/28 03:03:20;;;;;;;213.77;65.45;;;;;;;;;;4992618;28;20412;-44
2024/01/28 03:05:46;;;;;;;208.47;62.50;;;;;;;;;;4992709;28;20277;-44
2024/01/28 03:08:12;;;;;;;208.40;62.73;;;;;;;;;;4992856;28;20416;-45
2024/01/28 03:10:37;;;;;;;210.10;63.77;;;;;;;;;;4992622;28;20439;-45
2024/01/28 03:13:04;;;;;;;212.60;65.03;;;;;;;;;;4992784;28;20427;-45
2024/01/28 03:15:30;;;;;;;210.25;62.85;;;;;;;;;;4992524;28;20884;-44
2024/01/28 03:17:55;;;;;;;209.93;61.28;;;;;;;;;;4992749;28;20216;-44
2024/01/28 03:20:22;;;;;;;211.13;64.40;;;;;;;;;;4992714;28;20324;-45
2024/01/28 03:22:47;;;;;;;211.75;62.83;;;;;;;;;;4992625;28;20892;-44
2024/01/28 03:25:15;;;;;;;211.43;63.10;;;;;;;;;;4992317;28;20204;-44
2024/01/28 03:27:41;;;;;;;211.68;64.88;;;;;;;;;;4992588;28;20548;-44
2024/01/28 03:30:08;;;;;;;210.53;63.00;;;;;;;;;;4992458;28;20197;-45
2024/01/28 03:32:34;;;;;;;210.18;62.10;;;;;;;;;;4992454;28;20400;-44
2024/01/28 03:35:03;;;;;;;211.37;63.73;;;;;;;;;;4992269;28;20189;-44
2024/01/28 03:37:29;;;;;;;210.55;61.40;;;;;;;;;;4992393;28;20404;-44
2024/01/28 03:39:55;;;;;;;211.50;64.25;;;;;;;;;;4992333;28;20193;-44
2024/01/28 03:42:23;;;;;;;211.50;64.13;;;;;;;;;;4992458;28;20177;-44
2024/01/28 03:44:49;;;;;;;211.68;63.58;;;;;;;;;;4992040;28;20176;-44
2024/01/28 03:47:15;;;;;;;211.13;62.50;;;;;;;;;;4992262;28;20173;-44
2024/01/28 03:49:41;;;;;;;211.23;62.80;;;;;;;;;;4992234;28;20411;-45
2024/01/28 03:52:07;;;;;;;213.40;63.87;;;;;;;;;;4992236;28;20282;-44
2024/01/28 03:54:33;;;;;;;211.17;63.40;;;;;;;;;;4991971;28;20409;-44
2024/01/28 03:56:59;;;;;;;209.95;61.85;;;;;;;;;;4992384;28;20404;-44
2024/01/28 03:59:27;;;;;;;213.23;64.97;;;;;;;;;;4992167;28;20517;-45
2024/01/28 04:01:53;;;;;;;214.13;66.80;;;;;;;;;;4992108;28;20436;-44
2024/01/28 04:04:19;;;;;;;213.17;64.93;;;;;;;;;;4991970;28;20204;-44
2024/01/28 04:06:45;;;;;;;211.07;63.90;;;;;;;;;;4992124;28;20412;-44
2024/01/28 04:09:12;;;;;;;210.35;63.97;;;;;;;;;;4992064;28;20882;-44
2024/01/28 04:11:38;;;;;;;210.50;63.65;;;;;;;;;;4992373;28;20574;-46
2024/01/28 04:14:04;;;;;;;212.85;64.68;;;;;;;;;;4991789;28;20219;-44
2024/01/28 04:16:32;;;;;;;208.70;61.03;;;;;;;;;;4991906;28;20247;-44
2024/01/28 04:18:58;;;;;;;209.70;61.92;;;;;;;;;;4991994;28;20185;-44
2024/01/28 04:21:24;;;;;;;211.17;63.13;;;;;;;;;;4991901;28;20263;-44
2024/01/28 04:23:51;;;;;;;209.87;63.03;;;;;;;;;;4991794;28;20892;-44
2024/01/28 04:26:18;;;;;;;210.40;61.38;;;;;;;;;;4991838;28;20412;-44
2024/01/28 04:28:46;;;;;;;209.90;61.92;;;;;;;;;;4992026;28;20558;-45
2024/01/28 04:31:13;;;;;;;209.95;62.78;;;;;;;;;;4991941;28;20195;-45
2024/01/28 04:33:40;;;;;;;212.20;63.00;;;;;;;;;;4986135;28;20260;-44
2024/01/28 04:36:06;;;;;;;209.88;62.45;;;;;;;;;;4991837;28;20193;-45
2024/01/28 04:38:34;;;;;;;210.20;62.40;;;;;;;;;;4991872;28;20755;-44
2024/01/28 04:41:00;;;;;;;210.80;62.60;;;;;;;;;;4991767;28;20197;-44
2024/01/28 04:43:26;;;;;;;209.60;62.07;;;;;;;;;;4991975;28;20176;-44
2024/01/28 04:45:52;;;;;;;210.32;63.25;;;;;;;;;;4991742;28;20411;-44
2024/01/28 04:48:21;;;;;;;210.67;64.80;;;;;;;;;;4991723;28;20232;-44
2024/01/28 04:50:47;;;;;;;208.75;61.70;;;;;;;;;;4991561;28;20442;-44
2024/01/28 04:53:13;;;;;;;209.35;63.35;;;;;;;;;;4991587;28;20260;-45
2024/01/28 04:55:39;;;;;;;208.20;62.38;;;;;;;;;;4991512;28;20201;-44
2024/01/28 04:58:05;;;;;;;207.77;61.50;;;;;;;;;;4991630;28;20176;-44
2024/01/28 05:00:31;;;;;;;209.20;63.13;;;;;;;;;;4991623;28;20251;-45
2024/01/28 05:02:57;;;;;;;210.77;62.60;;;;;;;;;;4991598;28;20491;-44
2024/01/28 05:05:23;;;;;;;208.93;64.40;;;;;;;;;;4991307;28;20440;-45
2024/01/28 05:07:50;;;;;;;207.32;60.67;;;;;;;;;;4992005;28;20407;-44
2024/01/28 05:10:16;;;;;;;208.50;62.17;;;;;;;;;;4995101;28;20201;-44
2024/01/28 05:12:45;;;;;;;207.13;61.85;;;;;;;;;;4995008;28;20187;-44
2024/01/28 05:15:14;;;;;;;209.15;61.92;;;;;;;;;;4994678;28;20199;-44
2024/01/28 05:17:40;;;;;;;208.20;61.72;;;;;;;;;;4994892;28;20182;-44
2024/01/28 05:20:09;;;;;;;207.77;61.90;;;;;;;;;;4992181;28;20669;-44
2024/01/28 05:22:35;;;;;;;209.43;62.83;;;;;;;;;;4994778;28;20423;-44
2024/01/28 05:25:02;;;;;;;207.48;61.05;;;;;;;;;;4994520;28;20185;-44
2024/01/28 05:27:28;;;;;;;205.40;60.78;;;;;;;;;;4994698;28;20641;-44
2024/01/28 05:29:56;;;;;;;206.88;60.90;;;;;;;;;;4994936;28;20214;-44
2024/01/28 05:32:22;;;;;;;208.13;62.47;;;;;;;;;;4986802;28;20165;-44
2024/01/28 05:34:48;;;;;;;207.07;60.70;;;;;;;;;;4994078;28;20181;-44
2024/01/28 05:37:15;;;;;;;206.27;61.20;;;;;;;;;;4994484;28;20177;-44
2024/01/28 05:39:41;;;;;;;209.25;61.78;;;;;;;;;;4994544;28;20410;-44
2024/01/28 05:42:07;;;;;;;205.63;60.47;;;;;;;;;;4994538;28;20212;-44
2024/01/28 05:44:33;;;;;;;207.30;61.73;;;;;;;;;;4994254;28;20620;-45
2024/01/28 05:46:59;;;;;;;207.55;62.95;;;;;;;;;;4994271;28;20422;-44
2024/01/28 05:49:25;;;;;;;205.83;62.30;;;;;;;;;;4994260;28;20172;-44
2024/01/28 05:51:51;;;;;;;207.70;60.90;;;;;;;;;;4994383;28;20424;-44
2024/01/28 05:54:17;;;;;;;207.53;62.83;;;;;;;;;;4994011;28;20560;-44
2024/01/28 05:56:43;;;;;;;208.67;62.00;;;;;;;;;;4994182;28;20864;-44
2024/01/28 05:59:09;;;;;;;211.40;64.93;;;;;;;;;;4994179;28;20444;-44
2024/01/28 06:01:35;;;;;;;209.15;63.58;;;;;;;;;;4993900;28;20189;-44
2024/01/28 06:04:01;;;;;;;207.93;61.27;;;;;;;;;;4993857;28;20185;-44
2024/01/28 06:06:27;;;;;;;208.90;63.67;;;;;;;;;;4994021;28;20471;-44
2024/01/28 06:08:53;;;;;;;209.43;62.67;;;;;;;;;;4994037;28;20205;-45
2024/01/28 06:11:19;;;;;;;209.57;63.37;;;;;;;;;;4993996;28;20420;-44
2024/01/28 06:13:45;;;;;;;207.43;62.60;;;;;;;;;;4995522;28;20419;-44
2024/01/28 06:16:11;;;;;;;205.18;61.60;;;;;;;;;;4993535;28;20459;-44
2024/01/28 06:18:43;;;;;;;210.33;65.73;;;;;;;;;;4993833;28;20464;-44
2024/01/28 06:21:10;;;;;;;209.75;65.43;;;;;;;;;;4992738;28;20451;-44
2024/01/28 06:23:35;;;;;;;208.20;61.92;;;;;;;;;;4993453;28;20187;-45
2024/01/28 06:26:01;;;;;;;205.33;60.90;;;;;;;;;;4993705;28;20931;-44
2024/01/28 06:28:27;;;;;;;206.80;61.43;;;;;;;;;;4993700;28;20737;-44
2024/01/28 06:30:53;;;;;;;210.97;64.13;;;;;;;;;;4993404;28;20940;-44
2024/01/28 06:33:19;;;;;;;212.60;65.83;;;;;;;;;;4993248;28;20447;-45
2024/01/28 06:35:45;;;;;;;206.27;61.13;;;;;;;;;;4993392;28;20468;-44
2024/01/28 06:38:11;;;;;;;206.77;59.90;;;;;;;;;;4993393;28;20503;-44
2024/01/28 06:40:37;;;;;;;207.45;62.60;;;;;;;;;;4993373;28;20507;-45
2024/01/28 06:43:03;;;;;;;207.67;62.00;;;;;;;;;;4993251;28;20201;-44
2024/01/28 06:45:29;;;;;;;208.80;62.15;;;;;;;;;;4992851;28;20477;-44
2024/01/28 06:47:56;;;;;;;205.67;61.30;;;;;;;;;;4993330;28;20181;-44
2024/01/28 06:50:22;;;;;;;206.52;62.05;;;;;;;;;;4991978;28;20812;-44
2024/01/28 06:52:48;;;;;;;208.23;62.63;;;;;;;;;;4993149;28;20185;-44
2024/01/28 06:55:14;;;;;;;205.27;62.93;;;;;;;;;;4992808;28;20197;-44
2024/01/28 06:57:40;;;;;;;207.55;63.88;;;;;;;;;;4996545;28;20463;-44
2024/01/28 07:00:10;;;;;;;208.48;64.40;;;;;;;;;;4992788;28;20676;-44
2024/01/28 07:02:36;;;;;;;208.90;64.82;;;;;;;;;;4993042;28;20169;-44
2024/01/28 07:05:02;;;;;;;206.80;62.10;;;;;;;;;;4992509;28;20255;-44
2024/01/28 07:07:28;;;;;;;208.77;62.80;;;;;;;;;;4993011;28;20252;-44
2024/01/28 07:09:54;;;;;;;207.70;64.57;;;;;;;;;;4992767;28;20439;-44
2024/01/28 07:12:20;;;;;;;207.50;63.33;;;;;;;;;;4993236;28;20408;-45
2024/01/28 07:14:46;;;;;;;206.20;61.13;;;;;;;;;;4992290;28;20843;-44
2024/01/28 07:17:12;;;;;;;208.47;65.40;;;;;;;;;;4992754;28;20819;-44
2024/01/28 07:19:40;;;;;;;207.27;61.43;;;;;;;;;;4992611;28;20400;-44
2024/01/28 07:22:07;;;;;;;208.90;64.45;;;;;;;;;;4992704;28;20915;-44
2024/01/28 07:24:33;;;;;;;205.55;60.38;;;;;;;;;;4992307;28;20168;-44
2024/01/28 07:26:59;;;;;;;211.43;65.47;;;;;;;;;;4992006;28;20663;-44
2024/01/28 07:29:25;;;;;;;203.10;60.80;;;;;;;;;;4991776;28;20821;-44
2024/01/28 07:31:52;;;;;;;205.20;61.03;;;;;;;;;;4992268;28;20881;-44
2024/01/28 07:34:20;;;;;;;208.45;63.67;;;;;;;;;;4992004;28;20463;-44
2024/01/28 07:36:47;;;;;;;205.10;60.78;;;;;;;;;;4992426;28;20197;-44
2024/01/28 07:39:14;;;;;;;204.73;61.00;;;;;;;;;;4992404;28;20176;-44
2024/01/28 07:41:41;;;;;;;207.32;64.38;;;;;;;;;;4992262;28;20279;-44
2024/01/28 07:44:07;;;;;;;208.77;64.22;;;;;;;;;;4992210;28;20292;-44
2024/01/28 07:46:32;;;;;;;207.53;63.87;;;;;;;;;;4992436;28;20275;-44
2024/01/28 07:48:58;;;;;;;203.63;60.37;;;;;;;;;;4992587;28;20438;-44
2024/01/28 07:51:24;;;;;;;209.97;67.17;;;;;;;;;;5033583;23;20504;-43
2024/01/28 07:53:51;;;;;;;205.70;63.03;;;;;;;;;;5011053;28;20413;-42
2024/01/28 07:56:17;;;;;;;203.55;62.42;;;;;;;;;;5011954;28;20215;-42
2024/01/28 07:58:43;;;;;;;205.63;62.00;;;;;;;;;;5011960;28;20252;-42
2024/01/28 08:01:09;;;;;;;205.00;62.22;;;;;;;;;;5005282;28;20239;-41
2024/01/28 08:03:35;;;;;;;209.60;65.20;;;;;;;;;;4991994;28;20182;-42
2024/01/28 08:06:01;;;;;;;202.37;60.70;;;;;;;;;;4985456;28;20224;-41
2024/01/28 08:08:27;;;;;;;202.87;60.87;;;;;;;;;;4992466;28;20434;-42
2024/01/28 08:10:53;;;;;;;204.68;62.03;;;;;;;;;;4992407;28;20444;-41
2024/01/28 08:13:19;;;;;;;204.38;62.03;;;;;;;;;;4992079;28;20526;-42
2024/01/28 08:15:46;;;;;;;202.65;60.30;;;;;;;;;;4992675;28;20531;-42
2024/01/28 08:18:12;;;;;;;200.63;60.15;;;;;;;;;;4992114;28;20188;-42
2024/01/28 08:20:38;;;;;;;207.43;62.55;;;;;;;;;;4991956;28;20169;-42
2024/01/28 08:23:04;;;;;;;205.10;61.90;;;;;;;;;;4992068;28;20506;-42
2024/01/28 08:25:31;;;;;;;203.85;61.63;;;;;;;;;;4991641;28;20420;-42
2024/01/28 08:27:57;;;;;;;204.57;60.92;;;;;;;;;;4992011;28;20660;-41
2024/01/28 08:30:23;;;;;;;205.93;62.07;;;;;;;;;;4991981;28;20185;-41
2024/01/28 08:32:50;;;;;;;205.40;62.22;;;;;;;;;;4991932;28;20850;-42
2024/01/28 08:35:16;;;;;;;207.98;62.88;;;;;;;;;;4991425;28;20292;-42
2024/01/28 08:37:42;;;;;;;209.20;63.05;;;;;;;;;;4991969;28;20219;-42
2024/01/28 08:40:08;;;;;;;210.45;62.40;;;;;;;;;;4991997;28;20170;-42
2024/01/28 08:42:35;;;;;;;211.00;64.38;;;;;;;;;;4991976;28;20236;-42
2024/01/28 08:45:01;;;;;;;211.43;63.40;;;;;;;;;;4995278;28;20199;-42
2024/01/28 08:47:27;;;;;;;212.82;64.20;;;;;;;;;;4996002;28;20178;-43
2024/01/28 08:49:53;;;;;;;214.75;65.40;;;;;;;;;;4995575;28;20245;-43
2024/01/28 08:52:21;;;;;;;217.02;64.60;;;;;;;;;;4995594;28;20214;-43
2024/01/28 08:54:47;;;;;;;218.38;65.57;;;;;;;;;;4995333;28;20194;-42
2024/01/28 08:57:13;;;;;;;222.43;68.65;;;;;;;;;;4995447;28;20173;-43
2024/01/28 08:59:39;;;;;;;222.23;66.75;;;;;;;;;;4995317;28;20191;-42
2024/01/28 09:02:06;;;;;;;221.97;65.53;;;;;;;;;;4995245;28;20563;-43
2024/01/28 09:04:32;;;;;;;226.50;72.70;;;;;;;;;;4995025;28;20411;-43
2024/01/28 09:06:58;;;;;;;226.38;69.93;;;;;;;;;;4995321;28;20744;-43
2024/01/28 09:09:26;;;;;;;225.73;69.83;;;;;;;;;;4995327;28;20184;-43
2024/01/28 09:11:52;;;;;;;226.38;68.60;;;;;;;;;;4995358;28;20438;-42
2024/01/28 09:14:17;;;;;;;228.40;70.57;;;;;;;;;;4995057;28;20174;-43
2024/01/28 09:16:43;;;;;;;229.03;69.73;;;;;;;;;;4995748;28;20466;-42
2024/01/28 09:19:09;;;;;;;231.47;70.57;;;;;;;;;;4995550;28;20463;-43
2024/01/28 09:21:35;;;;;;;231.80;72.03;;;;;;;;;;4991635;28;20744;-43
2024/01/28 09:24:02;;;;;;;232.77;72.93;;;;;;;;;;4992923;28;20427;-43
2024/01/28 09:26:28;;;;;;;238.00;80.80;;;;;;;;;;4995875;28;20167;-43
2024/01/28 09:28:54;;;;;;;235.73;75.83;;;;;;;;;;4994996;28;20192;-43
2024/01/28 09:31:20;;;;;;;235.20;75.68;;;;;;;;;;4995551;28;20471;-43
2024/01/28 09:33:46;;;;;;;234.40;73.87;;;;;;;;;;4994822;28;20201;-43
2024/01/28 09:36:12;;;;;;;235.80;76.83;;;;;;;;;;4994799;28;20472;-43
2024/01/28 09:38:39;;;;;;;242.83;83.63;;;;;;;;;;4994776;28;20414;-44
2024/01/28 09:41:11;;;;;;;239.77;82.37;;;;;;;;;;4993917;28;20780;-43
2024/01/28 09:43:39;;;;;;;242.67;83.77;;;;;;;;;;4994531;28;20410;-43
2024/01/28 09:46:07;;;;;;;237.10;79.55;;;;;;;;;;4994852;28;20825;-43
2024/01/28 09:48:33;;;;;;;239.47;83.23;;;;;;;;;;4994523;28;20248;-45
2024/01/28 09:50:59;;;;;;;248.80;98.10;;;;;;;;;;4994221;28;20447;-44
2024/01/28 09:53:25;;;;;;;246.77;93.83;;;;;;;;;;4994320;28;20415;-45
2024/01/28 09:55:51;;;;;;;247.47;95.73;;;;;;;;;;4994183;28;20850;-45
2024/01/28 09:58:17;;;;;;;243.60;90.10;;;;;;;;;;4994465;28;20548;-43
2024/01/28 10:00:43;;;;;;;242.33;87.13;;;;;;;;;;4994302;28;20528;-43
2024/01/28 10:03:09;;;;;;;240.20;87.60;;;;;;;;;;4994166;28;20910;-43
2024/01/28 10:05:35;;;;;;;236.17;82.43;;;;;;;;;;4994153;28;20505;-43
2024/01/28 10:08:03;;;;;;;242.33;91.53;;;;;;;;;;4994229;28;20420;-43
2024/01/28 10:10:29;;;;;;;239.95;87.57;;;;;;;;;;4993918;28;20419;-43
2024/01/28 10:12:55;;;;;;;242.90;91.23;;;;;;;;;;4994270;28;20174;-43
2024/01/28 10:15:21;;;;;;;240.10;84.60;;;;;;;;;;4991289;28;20494;-43
2024/01/28 10:17:48;;;;;;;245.37;93.27;;;;;;;;;;4994186;28;20434;-43
2024/01/28 10:20:22;;;;;;;241.60;84.37;;;;;;;;;;4993957;28;20434;-43
2024/01/28 10:22:49;;;;;;;243.00;88.47;;;;;;;;;;4994020;28;20396;-43
2024/01/28 10:25:16;;;;;;;243.67;90.90;;;;;;;;;;4996993;28;20414;-43
2024/01/28 10:27:43;;;;;;;242.77;91.13;;;;;;;;;;4998569;28;20489;-43
2024/01/28 10:30:09;;;;;;;239.43;86.03;;;;;;;;;;4993942;28;20784;-43
2024/01/28 10:32:35;;;;;;;240.53;85.13;;;;;;;;;;4993792;28;20207;-44
2024/01/28 10:35:01;;;;;;;244.38;90.63;;;;;;;;;;4990388;28;20416;-43
2024/01/28 10:37:29;;;;;;;234.83;89.10;;;;;;;;;;4989235;28;20187;-43
2024/01/28 10:40:01;;;;;;;240.10;91.43;;;;;;;;;;4993395;28;20402;-44
2024/01/28 10:42:27;;;;;;;239.30;88.80;;;;;;;;;;4993605;28;20476;-43
2024/01/28 10:44:55;;;;;;;238.33;88.97;;;;;;;;;;4993195;28;20911;-44
2024/01/28 10:47:25;;;;;;;238.90;88.73;;;;;;;;;;4993274;28;20454;-44
2024/01/28 10:49:54;;;;;;;239.53;91.43;;;;;;;;;;4992301;28;20915;-43
2024/01/28 10:52:21;;;;;;;242.30;96.97;;;;;;;;;;4990921;28;20451;-45
2024/01/28 10:54:48;;;;;;;238.27;92.37;;;;;;;;;;4991780;28;20419;-44
2024/01/28 10:57:14;;;;;;;240.10;95.23;;;;;;;;;;4992052;28;20834;-43
2024/01/28 10:59:42;;;;;;;232.15;84.97;;;;;;;;;;4993569;28;20399;-43
2024/01/28 11:02:09;;;;;;;234.33;89.70;;;;;;;;;;4993426;28;20597;-45
2024/01/28 11:04:35;;;;;;;236.00;95.47;;;;;;;;;;4992878;28;20466;-45
2024/01/28 11:07:02;;;;;;;229.93;85.77;;;;;;;;;;4992744;28;20415;-43
2024/01/28 11:09:28;;;;;;;235.23;97.77;;;;;;;;;;4992932;28;20405;-43
2024/01/28 11:11:54;;;;;;;235.93;97.10;;;;;;;;;;4993030;28;20435;-43
2024/01/28 11:14:20;;;;;;;236.90;96.50;;;;;;;;;;4992664;28;20412;-43
2024/01/28 11:16:47;;;;;;;235.47;97.20;;;;;;;;;;4993036;28;20476;-43
2024/01/28 11:19:15;;;;;;;235.97;95.13;;;;;;;;;;4992895;28;20502;-43
2024/01/28 11:21:41;;;;;;;233.63;93.17;;;;;;;;;;4993101;28;20943;-44
2024/01/28 11:24:10;;;;;;;223.23;99.20;;;;;;;;;;4992551;28;20416;-43
2024/01/28 11:26:37;;;;;;;222.33;92.50;;;;;;;;;;4993043;28;20423;-44
2024/01/28 11:29:06;;;;;;;221.87;94.77;;;;;;;;;;4992949;28;20416;-44
2024/01/28 11:31:33;;;;;;;219.27;92.73;;;;;;;;;;4993041;28;20865;-43
2024/01/28 11:34:08;;;;;;;222.20;93.93;;;;;;;;;;4992958;28;20491;-44
2024/01/28 11:36:37;;;;;;;224.87;94.17;;;;;;;;;;4986497;28;20456;-44
2024/01/28 11:39:05;;;;;;;221.90;90.20;;;;;;;;;;4992721;28;20443;-43
2024/01/28 11:41:34;;;;;;;223.13;90.77;;;;;;;;;;4991437;28;20475;-43
2024/01/28 11:44:00;;;;;;;226.37;95.53;;;;;;;;;;4992587;28;20562;-43
2024/01/28 11:46:27;;;;;;;228.23;96.00;;;;;;;;;;4992819;28;20459;-44
2024/01/28 11:48:53;;;;;;;220.97;91.83;;;;;;;;;;4993075;28;20512;-44
2024/01/28 11:51:19;;;;;;;219.50;91.10;;;;;;;;;;4992531;28;20460;-43
2024/01/28 11:53:45;;;;;;;216.83;89.43;;;;;;;;;;4992387;28;20497;-44
2024/01/28 11:56:11;;;;;;;219.13;96.50;;;;;;;;;;4992788;28;20459;-45
2024/01/28 11:58:37;;;;;;;216.43;91.97;;;;;;;;;;4993098;28;20423;-45
2024/01/28 12:01:03;;;;;;;221.03;97.03;;;;;;;;;;4992808;28;20427;-43
2024/01/28 12:03:29;;;;;;;224.73;101.60;;;;;;;;;;4992595;28;20755;-44
2024/01/28 12:05:56;;;;;;;223.33;102.20;;;;;;;;;;4992932;28;20478;-43
2024/01/28 12:08:26;;;;;;;219.50;100.93;;;;;;;;;;4993035;28;20419;-44
2024/01/28 12:10:59;;;;;;;213.10;100.13;;;;;;;;;;4993068;28;20447;-44
2024/01/28 12:13:25;;;;;;;220.17;112.23;;;;;;;;;;4992507;28;20494;-43
2024/01/28 12:15:52;;;;;;;213.00;97.33;;;;;;;;;;4992361;28;20494;-44
2024/01/28 12:18:18;;;;;;;208.57;92.67;;;;;;;;;;4995885;28;20416;-44
2024/01/28 12:20:50;;;;;;;207.00;90.23;;;;;;;;;;4996496;28;20447;-43
2024/01/28 12:23:19;;;;;;;212.80;94.07;;;;;;;;;;4996583;28;20467;-48
2024/01/28 12:25:45;;;;;;;210.07;95.40;;;;;;;;;;4996065;28;20801;-45
2024/01/28 12:28:11;;;;;;;220.37;98.03;;;;;;;;;;4996327;28;20506;-43
2024/01/28 12:30:38;;;;;;;221.10;98.13;;;;;;;;;;4996016;28;20799;-43
2024/01/28 12:33:04;;;;;;;223.37;100.10;;;;;;;;;;4996276;28;20842;-43
2024/01/28 12:35:30;;;;;;;217.30;90.13;;;;;;;;;;4995710;28;20455;-44
2024/01/28 12:37:57;;;;;;;216.27;90.87;;;;;;;;;;4996424;28;20496;-43
2024/01/28 12:40:23;;;;;;;216.73;90.17;;;;;;;;;;4996048;28;20454;-43
2024/01/28 12:42:49;;;;;;;220.77;94.53;;;;;;;;;;4995948;28;20870;-43
2024/01/28 12:45:15;;;;;;;222.53;93.70;;;;;;;;;;4995262;28;20446;-44
2024/01/28 12:47:41;;;;;;;220.93;92.67;;;;;;;;;;4995921;28;20915;-43
2024/01/28 12:50:07;;;;;;;224.47;95.63;;;;;;;;;;4995670;28;20505;-43
2024/01/28 12:52:34;;;;;;;220.32;89.28;;;;;;;;;;4995677;28;20446;-43
2024/01/28 12:55:00;;;;;;;218.37;86.93;;;;;;;;;;4995339;28;20223;-45
2024/01/28 12:57:26;;;;;;;215.90;84.43;;;;;;;;;;4995623;28;20919;-43
2024/01/28 12:59:53;;;;;;;219.83;91.33;;;;;;;;;;4995740;28;20501;-45
2024/01/28 13:02:19;;;;;;;218.43;88.43;;;;;;;;;;4995369;28;20796;-44
2024/01/28 13:04:45;;;;;;;217.37;85.77;;;;;;;;;;4995261;28;20416;-43
2024/01/28 13:07:11;;;;;;;219.67;89.33;;;;;;;;;;4995570;28;20407;-45
2024/01/28 13:09:37;;;;;;;223.43;95.10;;;;;;;;;;4995560;28;20504;-43
2024/01/28 13:12:03;;;;;;;220.55;86.57;;;;;;;;;;4995372;28;21008;-43
2024/01/28 13:14:29;;;;;;;219.97;88.87;;;;;;;;;;4994981;28;20660;-43
2024/01/28 13:16:55;;;;;;;217.20;83.43;;;;;;;;;;5003169;28;20467;-43
2024/01/28 13:19:21;;;;;;;222.07;89.03;;;;;;;;;;4994681;28;20462;-43
2024/01/28 13:21:47;;;;;;;219.90;85.53;;;;;;;;;;4994625;28;20435;-43
2024/01/28 13:24:13;;;;;;;222.23;83.40;;;;;;;;;;4995117;28;20412;-43
2024/01/28 13:26:39;;;;;;;225.27;91.87;;;;;;;;;;4994580;28;20979;-43
2024/01/28 13:29:05;;;;;;;221.93;88.43;;;;;;;;;;4994348;28;20925;-45
2024/01/28 13:31:31;;;;;;;219.27;84.07;;;;;;;;;;4995317;28;20431;-44
2024/01/28 13:33:57;;;;;;;220.83;85.83;;;;;;;;;;4995378;28;20996;-43
2024/01/28 13:36:23;;;;;;;222.57;87.87;;;;;;;;;;4994805;28;20477;-43
2024/01/28 13:38:50;;;;;;;220.77;87.97;;;;;;;;;;4993442;28;20410;-45
2024/01/28 13:41:16;;;;;;;222.17;90.63;;;;;;;;;;4993534;28;20434;-44
2024/01/28 13:43:42;;;;;;;220.83;86.07;;;;;;;;;;4994590;28;20408;-44
2024/01/28 13:46:08;;;;;;;223.03;88.53;;;;;;;;;;4994734;28;20415;-43
2024/01/28 13:48:34;;;;;;;223.93;93.53;;;;;;;;;;4994940;28;20404;-44
2024/01/28 13:51:00;;;;;;;221.90;93.33;;;;;;;;;;4995593;28;20535;-44
2024/01/28 13:53:26;;;;;;;227.73;105.47;;;;;;;;;;4994274;28;20427;-44
2024/01/28 13:55:52;;;;;;;218.87;89.70;;;;;;;;;;4994448;28;20463;-43
2024/01/28 13:58:18;;;;;;;221.30;98.17;;;;;;;;;;4994433;28;20443;-43